createdAt,value
2023-04-15T00:01:47.630Z,8.19
2023-04-15T00:04:15.900Z,8.12
2023-04-15T00:06:43.999Z,8.08
2023-04-15T00:09:12.684Z,8.18
2023-04-15T00:11:42.113Z,8.16
2023-04-15T00:14:11.417Z,8.02
2023-04-15T00:16:39.788Z,7.96
2023-04-15T00:19:08.358Z,7.97
2023-04-15T00:21:37.041Z,7.94
2023-04-15T00:24:05.353Z,7.96
2023-04-15T00:26:33.389Z,7.95
2023-04-15T00:29:02.911Z,8.06
2023-04-15T00:31:32.981Z,7.95
2023-04-15T00:34:02.413Z,8.08
2023-04-15T00:36:31.729Z,8.10
2023-04-15T00:39:00.061Z,8.11
2023-04-15T00:41:28.602Z,8.03
2023-04-15T00:43:56.782Z,7.94
2023-04-15T00:46:29.838Z,8.08
2023-04-15T00:48:58.121Z,8.06
2023-04-15T00:51:26.319Z,7.96
2023-04-15T00:53:54.363Z,8.01
2023-04-15T00:56:24.491Z,8.10
2023-04-15T00:58:55.242Z,8.08
2023-04-15T01:01:25.981Z,7.91
2023-04-15T01:03:54.374Z,7.86
2023-04-15T01:06:22.514Z,7.85
2023-04-15T01:08:50.875Z,8.04
2023-04-15T01:11:19.468Z,8.00
2023-04-15T01:13:48.613Z,7.95
2023-04-15T01:16:17.946Z,8.01
2023-04-15T01:18:47.557Z,8.01
2023-04-15T01:21:15.639Z,7.81
2023-04-15T01:23:48.458Z,7.92
2023-04-15T01:26:18.614Z,7.97
2023-04-15T01:28:46.818Z,7.99
2023-04-15T01:31:16.562Z,8.08
2023-04-15T01:33:44.691Z,8.04
2023-04-15T01:36:12.817Z,8.05
2023-04-15T01:38:41.198Z,8.04
2023-04-15T01:41:09.244Z,8.04
2023-04-15T01:43:38.753Z,8.05
2023-04-15T01:46:07.090Z,8.06
2023-04-15T01:48:35.450Z,8.00
2023-04-15T01:51:04.823Z,8.06
2023-04-15T01:53:33.483Z,8.09
2023-04-15T01:56:01.574Z,8.15
2023-04-15T01:58:29.490Z,8.12
2023-04-15T02:00:58.861Z,8.02
2023-04-15T02:03:27.740Z,8.10
2023-04-15T02:05:56.620Z,8.06
2023-04-15T02:08:24.603Z,7.93
2023-04-15T02:10:52.997Z,8.05
2023-04-15T02:13:20.896Z,7.99
2023-04-15T02:15:49.622Z,8.00
2023-04-15T02:18:19.018Z,7.95
2023-04-15T02:20:47.150Z,8.06
2023-04-15T02:23:15.679Z,8.11
2023-04-15T02:25:43.640Z,8.17
2023-04-15T02:28:21.830Z,8.17
2023-04-15T02:30:52.744Z,8.20
2023-04-15T02:33:23.037Z,8.15
2023-04-15T02:35:51.040Z,8.13
2023-04-15T02:38:19.057Z,8.15
2023-04-15T02:40:49.620Z,8.05
2023-04-15T02:43:18.218Z,8.02
2023-04-15T02:45:48.099Z,7.97
2023-04-15T02:48:18.019Z,7.97
2023-04-15T02:50:47.895Z,7.99
2023-04-15T02:53:16.098Z,8.00
2023-04-15T02:55:44.081Z,8.03
2023-04-15T02:58:12.080Z,8.01
2023-04-15T03:00:40.013Z,7.98
2023-04-15T03:03:08.410Z,8.02
2023-04-15T03:05:38.919Z,8.02
2023-04-15T03:08:08.193Z,8.02
2023-04-15T03:10:36.176Z,7.98
2023-04-15T03:13:04.148Z,7.99
2023-04-15T03:15:33.872Z,8.03
2023-04-15T03:18:01.611Z,8.06
2023-04-15T03:20:29.672Z,8.04
2023-04-15T03:22:57.680Z,8.01
2023-04-15T03:25:27.041Z,8.05
2023-04-15T03:27:54.993Z,8.03
2023-04-15T03:30:22.970Z,8.06
2023-04-15T03:32:51.611Z,8.02
2023-04-15T03:35:19.550Z,8.05
2023-04-15T03:37:49.086Z,8.03
2023-04-15T03:40:17.142Z,8.08
2023-04-15T03:42:46.518Z,8.06
2023-04-15T03:45:14.450Z,8.08
2023-04-15T03:47:42.408Z,8.09
2023-04-15T03:50:11.166Z,8.12
2023-04-15T03:52:39.334Z,8.13
2023-04-15T03:55:08.404Z,8.13
2023-04-15T03:57:38.988Z,8.12
2023-04-15T04:00:10.620Z,8.15
2023-04-15T04:02:39.374Z,8.17
2023-04-15T04:05:08.181Z,8.15
2023-04-15T04:07:36.551Z,8.17
2023-04-15T04:10:04.878Z,8.17
2023-04-15T04:12:32.867Z,8.21
2023-04-15T04:15:00.877Z,8.21
2023-04-15T04:17:30.372Z,8.26
2023-04-15T04:19:58.337Z,8.30
2023-04-15T04:22:26.455Z,8.25
2023-04-15T04:24:54.374Z,8.25
2023-04-15T04:27:22.265Z,8.22
2023-04-15T04:29:50.211Z,8.24
2023-04-15T04:32:18.412Z,8.25
2023-04-15T04:34:48.123Z,8.23
2023-04-15T04:37:16.098Z,8.24
2023-04-15T04:39:44.059Z,8.26
2023-04-15T04:42:12.121Z,8.26
2023-04-15T04:44:40.301Z,8.26
2023-04-15T04:47:08.540Z,8.31
2023-04-15T04:49:36.782Z,8.31
2023-04-15T04:52:06.486Z,8.35
2023-04-15T04:54:34.271Z,8.39
2023-04-15T04:57:02.443Z,8.41
2023-04-15T04:59:31.000Z,8.34
2023-04-15T05:01:59.077Z,8.39
2023-04-15T05:04:27.293Z,8.33
2023-04-15T05:06:55.173Z,8.35
2023-04-15T05:09:24.675Z,8.39
2023-04-15T05:11:52.715Z,8.43
2023-04-15T05:14:22.945Z,8.43
2023-04-15T05:16:51.875Z,8.41
2023-04-15T05:19:19.838Z,8.42
2023-04-15T05:21:48.051Z,8.44
2023-04-15T05:24:16.808Z,8.48
2023-04-15T05:26:46.334Z,8.53
2023-04-15T05:29:14.270Z,8.59
2023-04-15T05:31:42.551Z,8.62
2023-04-15T05:34:11.662Z,8.64
2023-04-15T05:36:39.705Z,8.67
2023-04-15T05:39:07.672Z,8.67
2023-04-15T05:41:36.017Z,8.69
2023-04-15T05:44:06.171Z,8.72
2023-04-15T05:46:34.239Z,8.76
2023-04-15T05:49:02.663Z,8.78
2023-04-15T05:51:31.185Z,8.84
2023-04-15T05:53:59.114Z,8.84
2023-04-15T05:56:27.335Z,8.90
2023-04-15T05:58:55.343Z,8.97
2023-04-15T06:01:25.360Z,8.98
2023-04-15T06:03:53.547Z,9.08
2023-04-15T06:06:21.651Z,9.15
2023-04-15T06:08:49.542Z,9.27
2023-04-15T06:11:17.565Z,9.27
2023-04-15T06:13:45.508Z,9.32
2023-04-15T06:16:13.584Z,9.35
2023-04-15T06:18:43.020Z,9.44
2023-04-15T06:21:11.570Z,9.51
2023-04-15T06:23:41.129Z,9.63
2023-04-15T06:26:10.553Z,9.68
2023-04-15T06:28:38.482Z,9.63
2023-04-15T06:31:06.610Z,9.73
2023-04-15T06:33:34.485Z,9.80
2023-04-15T06:36:03.727Z,9.90
2023-04-15T06:38:31.675Z,9.82
2023-04-15T06:40:59.907Z,9.81
2023-04-15T06:43:27.856Z,9.91
2023-04-15T06:45:56.501Z,9.79
2023-04-15T06:48:24.490Z,9.89
2023-04-15T06:50:52.549Z,10.09
2023-04-15T06:53:22.138Z,10.16
2023-04-15T06:55:50.394Z,10.10
2023-04-15T06:58:18.364Z,10.22
2023-04-15T07:00:46.503Z,10.42
2023-04-15T07:03:15.097Z,10.53
2023-04-15T07:05:43.361Z,10.61
2023-04-15T07:08:11.472Z,10.54
2023-04-15T07:10:41.446Z,10.39
2023-04-15T07:13:09.441Z,10.31
2023-04-15T07:15:37.413Z,10.24
2023-04-15T07:18:05.319Z,10.25
2023-04-15T07:20:33.248Z,10.20
2023-04-15T07:23:01.221Z,10.21
2023-04-15T07:25:29.186Z,10.25
2023-04-15T07:27:58.591Z,10.26
2023-04-15T07:30:26.595Z,10.30
2023-04-15T07:32:55.134Z,10.24
2023-04-15T07:35:23.421Z,10.15
2023-04-15T07:37:52.185Z,10.17
2023-04-15T07:40:20.082Z,10.14
2023-04-15T07:42:49.330Z,10.26
2023-04-15T07:45:18.937Z,10.10
2023-04-15T07:47:46.987Z,10.11
2023-04-15T07:50:16.170Z,10.20
2023-04-15T07:52:44.152Z,10.32
2023-04-15T07:55:12.151Z,10.28
2023-04-15T07:57:40.116Z,10.19
2023-04-15T08:00:10.122Z,10.17
2023-04-15T08:02:40.681Z,10.27
2023-04-15T08:05:10.601Z,10.14
2023-04-15T08:07:38.867Z,10.39
2023-04-15T08:10:08.622Z,10.55
2023-04-15T08:12:37.034Z,10.50
2023-04-15T08:15:06.603Z,10.53
2023-04-15T08:17:34.534Z,10.61
2023-04-15T08:20:05.798Z,10.62
2023-04-15T08:22:34.414Z,10.51
2023-04-15T08:25:02.443Z,10.36
2023-04-15T08:27:30.334Z,10.28
2023-04-15T08:29:58.472Z,10.24
2023-04-15T08:32:26.716Z,10.24
2023-04-15T08:34:54.948Z,10.27
2023-04-15T08:37:24.241Z,10.41
2023-04-15T08:39:52.185Z,10.36
2023-04-15T08:42:32.346Z,10.44
2023-04-15T08:45:02.433Z,10.44
2023-04-15T08:47:32.821Z,10.54
2023-04-15T08:50:04.613Z,10.59
2023-04-15T08:52:34.232Z,10.60
2023-04-15T08:55:04.823Z,10.65
2023-04-15T08:57:34.372Z,10.53
2023-04-15T09:00:05.881Z,10.46
2023-04-15T09:02:34.047Z,10.55
2023-04-15T09:05:04.951Z,10.54
2023-04-15T09:07:36.549Z,10.57
2023-04-15T09:10:05.497Z,10.56
2023-04-15T09:12:36.803Z,10.65
2023-04-15T09:15:05.891Z,10.70
2023-04-15T09:17:35.495Z,10.82
2023-04-15T09:20:12.966Z,10.60
2023-04-15T09:22:43.320Z,10.59
2023-04-15T09:25:29.204Z,10.69
2023-04-15T09:27:59.285Z,10.70
2023-04-15T09:30:29.199Z,10.75
2023-04-15T09:33:00.517Z,10.73
2023-04-15T09:35:29.164Z,10.92
2023-04-15T09:38:05.424Z,10.88
2023-04-15T09:40:35.893Z,10.96
2023-04-15T09:43:05.292Z,11.05
2023-04-15T09:45:35.719Z,11.03
2023-04-15T09:48:19.218Z,10.83
2023-04-15T09:50:48.819Z,10.83
2023-04-15T09:53:23.368Z,10.70
2023-04-15T09:55:54.516Z,10.62
2023-04-15T09:58:25.063Z,10.54
2023-04-15T10:00:55.286Z,10.60
2023-04-15T10:03:25.941Z,10.54
2023-04-15T10:05:56.742Z,10.58
2023-04-15T10:08:28.725Z,10.56
2023-04-15T10:10:57.306Z,10.38
2023-04-15T10:13:28.577Z,10.29
2023-04-15T10:16:00.446Z,10.23
2023-04-15T10:18:33.184Z,10.24
2023-04-15T10:21:02.918Z,10.25
2023-04-15T10:23:32.678Z,10.24
2023-04-15T10:26:01.632Z,10.14
2023-04-15T10:28:29.816Z,10.08
2023-04-15T10:30:59.295Z,10.06
2023-04-15T10:33:29.737Z,10.12
2023-04-15T10:35:58.604Z,10.17
2023-04-15T10:38:36.740Z,10.19
2023-04-15T10:41:20.820Z,10.22
2023-04-15T10:43:52.995Z,10.26
2023-04-15T10:46:25.560Z,10.27
2023-04-15T10:48:55.489Z,10.31
2023-04-15T10:51:31.937Z,10.28
2023-04-15T10:54:02.203Z,10.23
2023-04-15T10:56:32.295Z,10.34
2023-04-15T10:59:02.414Z,10.34
2023-04-15T11:01:56.391Z,10.41
2023-04-15T11:04:53.785Z,10.45
2023-04-15T11:07:54.783Z,10.44
2023-04-15T11:10:55.073Z,10.48
2023-04-15T11:13:29.355Z,10.44
2023-04-15T11:16:02.955Z,10.37
2023-04-15T11:18:34.279Z,10.36
2023-04-15T11:21:08.415Z,10.25
2023-04-15T11:23:40.693Z,10.36
2023-04-15T11:26:12.447Z,10.32
2023-04-15T11:28:42.430Z,10.27
2023-04-15T11:31:12.240Z,10.29
2023-04-15T11:33:48.940Z,10.30
2023-04-15T11:36:19.021Z,10.32
2023-04-15T11:38:49.106Z,10.30
2023-04-15T11:41:23.151Z,10.33
2023-04-15T11:43:51.774Z,10.34
2023-04-15T11:46:21.467Z,10.37
2023-04-15T11:48:49.356Z,10.39
2023-04-15T11:51:17.552Z,10.43
2023-04-15T11:53:48.484Z,10.39
2023-04-15T11:56:21.396Z,10.27
2023-04-15T11:58:52.903Z,10.23
2023-04-15T12:01:21.115Z,10.21
2023-04-15T12:03:50.757Z,10.29
2023-04-15T12:06:20.847Z,10.27
2023-04-15T12:09:00.430Z,10.22
2023-04-15T12:11:38.882Z,10.23
2023-04-15T12:14:17.786Z,10.24
2023-04-15T12:16:50.102Z,10.26
2023-04-15T12:19:26.251Z,10.26
2023-04-15T12:22:00.770Z,10.30
2023-04-15T12:24:33.344Z,10.34
2023-04-15T12:27:08.484Z,10.41
2023-04-15T12:29:39.332Z,10.48
2023-04-15T12:32:09.642Z,10.49
2023-04-15T12:34:40.285Z,10.59
2023-04-15T12:37:14.267Z,10.59
2023-04-15T12:39:44.865Z,10.63
2023-04-15T12:42:14.378Z,10.65
2023-04-15T12:44:43.081Z,10.64
2023-04-15T12:47:13.309Z,10.70
2023-04-15T12:49:42.003Z,10.72
2023-04-15T12:52:10.082Z,10.68
2023-04-15T12:54:38.130Z,10.76
2023-04-15T12:57:07.489Z,10.79
2023-04-15T12:59:37.473Z,10.78
2023-04-15T13:02:06.049Z,10.80
2023-04-15T13:04:34.346Z,10.76
2023-04-15T13:07:03.176Z,10.69
2023-04-15T13:09:31.267Z,10.72
2023-04-15T13:11:59.379Z,10.58
2023-04-15T13:14:28.270Z,10.52
2023-04-15T13:16:58.107Z,10.48
2023-04-15T13:19:26.668Z,10.46
2023-04-15T13:21:55.044Z,10.45
2023-04-15T13:24:23.200Z,10.34
2023-04-15T13:26:52.105Z,10.38
2023-04-15T13:29:20.203Z,10.45
2023-04-15T13:31:48.435Z,10.47
2023-04-15T13:34:18.050Z,10.46
2023-04-15T13:36:46.271Z,10.48
2023-04-15T13:39:14.441Z,10.38
2023-04-15T13:41:42.660Z,10.42
2023-04-15T13:44:12.308Z,10.44
2023-04-15T13:46:41.929Z,10.45
2023-04-15T13:49:10.412Z,10.48
2023-04-15T13:51:40.619Z,10.52
2023-04-15T13:54:14.270Z,10.51
2023-04-15T13:56:42.332Z,10.49
2023-04-15T13:59:10.794Z,10.53
2023-04-15T14:01:39.550Z,10.47
2023-04-15T14:04:08.218Z,10.49
2023-04-15T14:06:36.601Z,10.52
2023-04-15T14:09:06.614Z,10.46
2023-04-15T14:11:36.766Z,10.42
2023-04-15T14:14:05.117Z,10.42
2023-04-15T14:16:34.138Z,10.36
2023-04-15T14:19:03.844Z,10.39
2023-04-15T14:21:33.703Z,10.33
2023-04-15T14:24:01.937Z,10.29
2023-04-15T14:26:31.419Z,10.39
2023-04-15T14:28:59.637Z,10.44
2023-04-15T14:31:28.030Z,10.38
2023-04-15T14:33:59.230Z,10.36
2023-04-15T14:36:28.495Z,10.30
2023-04-15T14:38:57.014Z,10.29
2023-04-15T14:41:25.623Z,10.36
2023-04-15T14:43:55.116Z,10.34
2023-04-15T14:46:23.406Z,10.37
2023-04-15T14:48:51.548Z,10.35
2023-04-15T14:51:19.925Z,10.39
2023-04-15T14:53:50.587Z,10.38
2023-04-15T14:56:18.753Z,10.32
2023-04-15T14:58:47.006Z,10.38
2023-04-15T15:01:16.783Z,10.46
2023-04-15T15:03:44.806Z,10.34
2023-04-15T15:06:13.433Z,10.39
2023-04-15T15:08:41.604Z,10.49
2023-04-15T15:11:09.702Z,10.50
2023-04-15T15:13:40.227Z,10.44
2023-04-15T15:16:09.004Z,10.30
2023-04-15T15:18:38.457Z,10.26
2023-04-15T15:21:06.692Z,10.28
2023-04-15T15:23:34.561Z,10.32
2023-04-15T15:26:02.530Z,10.28
2023-04-15T15:28:30.492Z,10.25
2023-04-15T15:30:58.498Z,10.38
2023-04-15T15:33:28.052Z,10.39
2023-04-15T15:35:59.114Z,10.39
2023-04-15T15:38:27.316Z,10.31
2023-04-15T15:40:55.288Z,10.38
2023-04-15T15:43:23.150Z,10.45
2023-04-15T15:45:52.838Z,10.35
2023-04-15T15:48:20.937Z,10.41
2023-04-15T15:50:48.980Z,10.44
2023-04-15T15:53:20.842Z,10.46
2023-04-15T15:55:49.158Z,10.39
2023-04-15T15:58:17.089Z,10.43
2023-04-15T16:00:45.282Z,10.42
2023-04-15T16:03:13.356Z,10.36
2023-04-15T16:05:41.422Z,10.32
2023-04-15T16:08:09.622Z,10.30
2023-04-15T16:10:39.279Z,10.36
2023-04-15T16:13:07.380Z,10.36
2023-04-15T16:15:35.503Z,10.38
2023-04-15T16:18:03.509Z,10.31
2023-04-15T16:20:31.607Z,10.32
2023-04-15T16:23:00.300Z,10.28
2023-04-15T16:25:28.322Z,10.20
2023-04-15T16:28:05.382Z,10.21
2023-04-15T16:30:41.271Z,10.15
2023-04-15T16:33:10.613Z,10.17
2023-04-15T16:35:38.522Z,10.19
2023-04-15T16:38:06.481Z,10.26
2023-04-15T16:40:34.909Z,10.24
2023-04-15T16:43:04.481Z,10.24
2023-04-15T16:45:32.403Z,10.20
2023-04-15T16:48:00.416Z,10.17
2023-04-15T16:50:28.788Z,10.05
2023-04-15T16:52:56.888Z,10.17
2023-04-15T16:55:24.882Z,10.13
2023-04-15T16:58:01.883Z,10.17
2023-04-15T17:00:36.135Z,10.11
2023-04-15T17:03:04.809Z,10.17
2023-04-15T17:05:32.924Z,10.14
2023-04-15T17:08:01.112Z,10.19
2023-04-15T17:10:29.276Z,10.14
2023-04-15T17:12:58.801Z,10.15
2023-04-15T17:15:27.288Z,10.12
2023-04-15T17:17:56.710Z,10.18
2023-04-15T17:20:24.733Z,10.11
2023-04-15T17:22:52.679Z,10.08
2023-04-15T17:25:20.817Z,10.04
2023-04-15T17:27:48.826Z,10.11
2023-04-15T17:30:16.774Z,10.09
2023-04-15T17:32:44.793Z,10.19
2023-04-15T17:35:14.257Z,10.12
2023-04-15T17:37:42.275Z,10.06
2023-04-15T17:40:11.410Z,10.08
2023-04-15T17:42:39.387Z,10.10
2023-04-15T17:45:09.108Z,10.10
2023-04-15T17:47:36.898Z,10.06
2023-04-15T17:50:05.152Z,10.06
2023-04-15T17:52:34.705Z,9.98
2023-04-15T17:55:02.691Z,10.02
2023-04-15T17:57:30.892Z,10.05
2023-04-15T17:59:58.928Z,10.07
2023-04-15T18:02:27.106Z,10.04
2023-04-15T18:04:55.412Z,10.07
2023-04-15T18:07:23.526Z,9.99
2023-04-15T18:09:55.784Z,10.05
2023-04-15T18:12:23.796Z,9.97
2023-04-15T18:15:12.484Z,9.99
2023-04-15T18:17:43.298Z,9.99
2023-04-15T18:20:12.749Z,9.97
2023-04-15T18:22:59.688Z,9.96
2023-04-15T18:25:33.967Z,9.88
2023-04-15T18:28:01.994Z,9.96
2023-04-15T18:30:30.048Z,10.00
2023-04-15T18:32:58.142Z,9.95
2023-04-15T18:35:26.082Z,9.93
2023-04-15T18:37:54.191Z,9.97
2023-04-15T18:40:22.106Z,9.98
2023-04-15T18:42:52.493Z,9.94
2023-04-15T18:45:20.540Z,9.91
2023-04-15T18:47:48.789Z,9.89
2023-04-15T18:50:16.874Z,9.89
2023-04-15T18:52:44.935Z,9.85
2023-04-15T18:55:13.238Z,9.81
2023-04-15T18:57:44.733Z,9.83
2023-04-15T19:00:15.984Z,9.88
2023-04-15T19:02:44.144Z,9.85
2023-04-15T19:05:12.276Z,9.88
2023-04-15T19:07:41.111Z,9.81
2023-04-15T19:10:09.960Z,9.79
2023-04-15T19:12:38.015Z,9.81
2023-04-15T19:15:07.105Z,9.82
2023-04-15T19:17:36.565Z,9.83
2023-04-15T19:20:05.001Z,9.84
2023-04-15T19:22:33.122Z,9.83
2023-04-15T19:25:01.204Z,9.89
2023-04-15T19:27:29.195Z,9.80
2023-04-15T19:29:57.370Z,9.85
2023-04-15T19:32:25.369Z,9.82
2023-04-15T19:34:54.970Z,9.79
2023-04-15T19:37:23.100Z,9.78
2023-04-15T19:39:51.269Z,9.82
2023-04-15T19:42:19.223Z,9.74
2023-04-15T19:44:47.214Z,9.77
2023-04-15T19:47:15.446Z,9.74
2023-04-15T19:49:43.518Z,9.77
2023-04-15T19:52:13.116Z,9.79
2023-04-15T19:54:41.389Z,9.71
2023-04-15T19:57:09.488Z,9.73
2023-04-15T19:59:37.698Z,9.65
2023-04-15T20:02:05.968Z,9.72
2023-04-15T20:04:34.051Z,9.76
2023-04-15T20:07:02.141Z,9.74
2023-04-15T20:09:31.430Z,9.75
2023-04-15T20:12:48.058Z,9.73
2023-04-15T20:14:47.740Z,9.69
2023-04-15T20:17:15.972Z,9.71
2023-04-15T20:19:43.881Z,9.74
2023-04-15T20:22:11.830Z,9.67
2023-04-15T20:24:41.139Z,9.70
2023-04-15T20:27:09.284Z,9.74
2023-04-15T20:29:37.758Z,9.73
2023-04-15T20:32:06.665Z,9.71
2023-04-15T20:34:35.052Z,9.72
2023-04-15T20:37:03.028Z,9.75
2023-04-15T20:39:31.179Z,9.75
2023-04-15T20:42:01.271Z,9.73
2023-04-15T20:44:29.216Z,9.81
2023-04-15T20:46:57.427Z,9.76
2023-04-15T20:49:25.651Z,9.76
2023-04-15T20:51:53.551Z,9.76
2023-04-15T20:54:21.842Z,9.75
2023-04-15T20:56:49.799Z,9.82
2023-04-15T20:59:19.310Z,9.82
2023-04-15T21:01:47.689Z,9.74
2023-04-15T21:04:15.729Z,9.80
2023-04-15T21:06:43.719Z,9.81
2023-04-15T21:09:11.803Z,9.76
2023-04-15T21:11:57.530Z,9.76
2023-04-15T21:14:28.993Z,9.79
2023-04-15T21:16:58.439Z,9.75
2023-04-15T21:19:26.337Z,9.72
2023-04-15T21:21:54.268Z,9.72
2023-04-15T21:24:22.139Z,9.71
2023-04-15T21:26:50.108Z,9.73
2023-04-15T21:29:18.203Z,9.67
2023-04-15T21:31:47.887Z,9.70
2023-04-15T21:34:15.651Z,9.66
2023-04-15T21:36:43.663Z,9.70
2023-04-15T21:39:11.563Z,9.72
2023-04-15T21:41:39.575Z,9.78
2023-04-15T21:44:07.518Z,9.72
2023-04-15T21:46:36.010Z,9.73
2023-04-15T21:49:06.877Z,9.75
2023-04-15T21:51:35.153Z,9.72
2023-04-15T21:54:03.108Z,9.72
2023-04-15T21:56:30.946Z,9.69
2023-04-15T21:58:59.775Z,9.68
2023-04-15T22:01:27.927Z,9.63
2023-04-15T22:03:56.238Z,9.61
2023-04-15T22:06:25.555Z,9.68
2023-04-15T22:08:57.403Z,9.65
2023-04-15T22:11:28.188Z,9.61
2023-04-15T22:13:57.685Z,9.65
2023-04-15T22:16:26.776Z,9.69
2023-04-15T22:18:55.309Z,9.65
2023-04-15T22:21:23.314Z,9.65
2023-04-15T22:24:32.862Z,9.67
2023-04-15T22:26:42.225Z,9.64
2023-04-15T22:29:10.544Z,9.64
2023-04-15T22:31:38.526Z,9.63
2023-04-15T22:34:06.486Z,9.63
2023-04-15T22:36:34.444Z,9.61
2023-04-15T22:39:04.112Z,9.57
2023-04-15T22:41:32.329Z,9.58
2023-04-15T22:44:00.195Z,9.57
2023-04-15T22:46:28.182Z,9.62
2023-04-15T22:48:56.095Z,9.64
2023-04-15T22:51:26.941Z,9.62
2023-04-15T22:53:55.188Z,9.64
2023-04-15T22:56:24.805Z,9.64
2023-04-15T22:58:53.508Z,9.62
2023-04-15T23:01:21.623Z,9.64
2023-04-15T23:03:57.069Z,9.63
2023-04-15T23:06:28.127Z,9.64
2023-04-15T23:08:56.073Z,9.58
2023-04-15T23:11:25.450Z,9.57
2023-04-15T23:13:53.427Z,9.58
2023-04-15T23:16:21.440Z,9.69
2023-04-15T23:18:49.518Z,9.61
2023-04-15T23:21:17.853Z,9.69
2023-04-15T23:23:45.778Z,9.56
2023-04-15T23:26:13.774Z,9.64
2023-04-15T23:28:43.139Z,9.62
2023-04-15T23:31:11.117Z,9.59
2023-04-15T23:33:39.111Z,9.58
2023-04-15T23:36:07.503Z,9.69
2023-04-15T23:38:35.554Z,9.66
2023-04-15T23:41:03.495Z,9.56
2023-04-15T23:43:31.392Z,9.55
2023-04-15T23:46:00.705Z,9.64
2023-04-15T23:48:30.021Z,9.54
2023-04-15T23:50:58.000Z,9.62
2023-04-15T23:53:25.908Z,9.71
2023-04-15T23:55:54.212Z,9.65
2023-04-15T23:58:22.169Z,9.65
